sensor_id;sensor_type;location;lat;lon;timestamp;temperature;humidity
38237;DHT22;50101;49.438;11.098;2023-08-07T00:01:13;22.10;67.10
38237;DHT22;50101;49.438;11.098;2023-08-07T00:03:40;22.10;66.50
38237;DHT22;50101;49.438;11.098;2023-08-07T00:06:07;22.10;67.10
38237;DHT22;50101;49.438;11.098;2023-08-07T00:08:33;22.10;67.10
38237;DHT22;50101;49.438;11.098;2023-08-07T00:11:07;22.10;67.10
38237;DHT22;50101;49.438;11.098;2023-08-07T00:13:34;22.10;67.00
38237;DHT22;50101;49.438;11.098;2023-08-07T00:16:01;22.10;67.00
38237;DHT22;50101;49.438;11.098;2023-08-07T00:18:28;22.10;67.00
38237;DHT22;50101;49.438;11.098;2023-08-07T00:20:55;22.10;67.10
38237;DHT22;50101;49.438;11.098;2023-08-07T00:23:22;22.10;67.00
38237;DHT22;50101;49.438;11.098;2023-08-07T00:25:49;22.10;67.00
38237;DHT22;50101;49.438;11.098;2023-08-07T00:28:15;22.10;67.00
38237;DHT22;50101;49.438;11.098;2023-08-07T00:30:42;22.10;67.00
38237;DHT22;50101;49.438;11.098;2023-08-07T00:33:09;22.00;66.90
38237;DHT22;50101;49.438;11.098;2023-08-07T00:35:36;22.10;67.00
38237;DHT22;50101;49.438;11.098;2023-08-07T00:38:02;22.10;67.00
38237;DHT22;50101;49.438;11.098;2023-08-07T00:40:36;22.10;67.00
38237;DHT22;50101;49.438;11.098;2023-08-07T00:43:04;22.00;66.90
38237;DHT22;50101;49.438;11.098;2023-08-07T00:45:36;22.10;67.00
38237;DHT22;50101;49.438;11.098;2023-08-07T00:48:04;22.10;67.00
38237;DHT22;50101;49.438;11.098;2023-08-07T00:50:32;22.00;66.90
38237;DHT22;50101;49.438;11.098;2023-08-07T00:53:12;22.10;66.90
38237;DHT22;50101;49.438;11.098;2023-08-07T00:55:38;22.00;66.90
38237;DHT22;50101;49.438;11.098;2023-08-07T00:58:05;22.10;66.90
38237;DHT22;50101;49.438;11.098;2023-08-07T01:00:32;22.10;67.00
38237;DHT22;50101;49.438;11.098;2023-08-07T01:02:59;22.00;66.80
38237;DHT22;50101;49.438;11.098;2023-08-07T01:05:27;22.00;66.90
38237;DHT22;50101;49.438;11.098;2023-08-07T01:07:54;22.00;66.80
38237;DHT22;50101;49.438;11.098;2023-08-07T01:16:18;22.00;66.90
38237;DHT22;50101;49.438;11.098;2023-08-07T01:18:46;22.00;66.80
38237;DHT22;50101;49.438;11.098;2023-08-07T01:21:20;22.00;66.90
38237;DHT22;50101;49.438;11.098;2023-08-07T01:23:47;22.00;66.90
38237;DHT22;50101;49.438;11.098;2023-08-07T01:26:18;22.00;66.80
38237;DHT22;50101;49.438;11.098;2023-08-07T01:29:04;22.00;66.90
38237;DHT22;50101;49.438;11.098;2023-08-07T01:31:35;22.00;66.80
38237;DHT22;50101;49.438;11.098;2023-08-07T01:34:05;22.00;67.50
38237;DHT22;50101;49.438;11.098;2023-08-07T01:36:35;22.00;66.90
38237;DHT22;50101;49.438;11.098;2023-08-07T01:39:02;21.90;66.80
38237;DHT22;50101;49.438;11.098;2023-08-07T01:41:30;22.00;66.80
38237;DHT22;50101;49.438;11.098;2023-08-07T01:43:57;22.00;66.90
38237;DHT22;50101;49.438;11.098;2023-08-07T01:46:24;22.00;66.80
38237;DHT22;50101;49.438;11.098;2023-08-07T01:48:51;22.00;66.80
38237;DHT22;50101;49.438;11.098;2023-08-07T01:51:17;21.90;66.80
38237;DHT22;50101;49.438;11.098;2023-08-07T01:53:44;22.00;66.90
38237;DHT22;50101;49.438;11.098;2023-08-07T01:56:11;22.00;66.90
38237;DHT22;50101;49.438;11.098;2023-08-07T01:58:38;22.00;66.80
38237;DHT22;50101;49.438;11.098;2023-08-07T02:01:05;22.00;66.80
38237;DHT22;50101;49.438;11.098;2023-08-07T02:03:34;22.00;66.80
38237;DHT22;50101;49.438;11.098;2023-08-07T02:06:01;22.00;66.80
38237;DHT22;50101;49.438;11.098;2023-08-07T02:08:28;21.90;66.70
38237;DHT22;50101;49.438;11.098;2023-08-07T02:10:55;21.90;66.80
38237;DHT22;50101;49.438;11.098;2023-08-07T02:13:22;21.90;66.70
38237;DHT22;50101;49.438;11.098;2023-08-07T02:15:48;21.90;66.10
38237;DHT22;50101;49.438;11.098;2023-08-07T02:18:15;21.90;66.80
38237;DHT22;50101;49.438;11.098;2023-08-07T02:20:42;21.90;66.70
38237;DHT22;50101;49.438;11.098;2023-08-07T02:23:11;21.90;66.70
38237;DHT22;50101;49.438;11.098;2023-08-07T02:25:38;23.40;68.40
38237;DHT22;50101;49.438;11.098;2023-08-07T02:28:04;21.90;66.70
38237;DHT22;50101;49.438;11.098;2023-08-07T02:30:31;21.90;66.60
38237;DHT22;50101;49.438;11.098;2023-08-07T02:32:58;21.90;66.70
38237;DHT22;50101;49.438;11.098;2023-08-07T02:35:24;21.90;66.10
38237;DHT22;50101;49.438;11.098;2023-08-07T02:37:51;21.90;66.70
38237;DHT22;50101;49.438;11.098;2023-08-07T02:40:18;21.90;66.70
38237;DHT22;50101;49.438;11.098;2023-08-07T02:42:45;21.90;66.70
38237;DHT22;50101;49.438;11.098;2023-08-07T02:45:12;21.90;66.60
38237;DHT22;50101;49.438;11.098;2023-08-07T02:47:39;21.90;66.70
38237;DHT22;50101;49.438;11.098;2023-08-07T02:50:06;21.90;66.60
38237;DHT22;50101;49.438;11.098;2023-08-07T02:52:32;21.90;66.70
38237;DHT22;50101;49.438;11.098;2023-08-07T02:54:59;21.90;66.60
38237;DHT22;50101;49.438;11.098;2023-08-07T02:57:26;21.90;66.60
38237;DHT22;50101;49.438;11.098;2023-08-07T02:59:52;21.90;66.60
38237;DHT22;50101;49.438;11.098;2023-08-07T03:02:19;21.90;66.70
38237;DHT22;50101;49.438;11.098;2023-08-07T03:04:46;21.90;66.70
38237;DHT22;50101;49.438;11.098;2023-08-07T03:07:13;21.90;66.60
38237;DHT22;50101;49.438;11.098;2023-08-07T03:09:39;21.90;66.60
38237;DHT22;50101;49.438;11.098;2023-08-07T03:12:06;21.90;66.60
38237;DHT22;50101;49.438;11.098;2023-08-07T03:14:33;21.80;66.60
38237;DHT22;50101;49.438;11.098;2023-08-07T03:17:00;21.80;66.60
38237;DHT22;50101;49.438;11.098;2023-08-07T03:19:26;21.90;66.60
38237;DHT22;50101;49.438;11.098;2023-08-07T03:21:53;21.80;66.60
38237;DHT22;50101;49.438;11.098;2023-08-07T03:24:20;21.90;66.60
38237;DHT22;50101;49.438;11.098;2023-08-07T03:26:47;21.90;66.60
38237;DHT22;50101;49.438;11.098;2023-08-07T03:29:15;21.80;66.50
38237;DHT22;50101;49.438;11.098;2023-08-07T03:31:42;21.90;66.60
38237;DHT22;50101;49.438;11.098;2023-08-07T03:34:09;21.90;66.60
38237;DHT22;50101;49.438;11.098;2023-08-07T03:36:35;21.90;66.60
38237;DHT22;50101;49.438;11.098;2023-08-07T03:39:02;21.90;66.60
38237;DHT22;50101;49.438;11.098;2023-08-07T03:41:29;21.80;66.50
38237;DHT22;50101;49.438;11.098;2023-08-07T03:43:56;21.80;66.50
38237;DHT22;50101;49.438;11.098;2023-08-07T03:46:23;21.80;66.50
38237;DHT22;50101;49.438;11.098;2023-08-07T03:48:49;21.80;66.50
38237;DHT22;50101;49.438;11.098;2023-08-07T03:51:16;21.80;66.50
38237;DHT22;50101;49.438;11.098;2023-08-07T03:53:43;21.90;65.90
38237;DHT22;50101;49.438;11.098;2023-08-07T03:56:10;21.80;66.50
38237;DHT22;50101;49.438;11.098;2023-08-07T03:58:37;21.90;66.50
38237;DHT22;50101;49.438;11.098;2023-08-07T04:01:04;21.90;66.50
38237;DHT22;50101;49.438;11.098;2023-08-07T04:03:31;21.90;66.50
38237;DHT22;50101;49.438;11.098;2023-08-07T04:05:58;21.90;66.50
38237;DHT22;50101;49.438;11.098;2023-08-07T04:08:26;21.80;66.50
38237;DHT22;50101;49.438;11.098;2023-08-07T04:11:04;21.80;66.50
38237;DHT22;50101;49.438;11.098;2023-08-07T04:13:31;21.80;66.50
38237;DHT22;50101;49.438;11.098;2023-08-07T04:15:58;21.80;65.90
38237;DHT22;50101;49.438;11.098;2023-08-07T04:18:25;21.80;66.50
38237;DHT22;50101;49.438;11.098;2023-08-07T04:20:53;21.80;66.50
38237;DHT22;50101;49.438;11.098;2023-08-07T04:23:21;21.80;66.40
38237;DHT22;50101;49.438;11.098;2023-08-07T04:25:48;21.80;66.40
38237;DHT22;50101;49.438;11.098;2023-08-07T04:28:15;21.80;66.40
38237;DHT22;50101;49.438;11.098;2023-08-07T04:30:42;21.80;66.40
38237;DHT22;50101;49.438;11.098;2023-08-07T04:33:09;21.80;66.40
38237;DHT22;50101;49.438;11.098;2023-08-07T04:35:36;21.80;66.40
38237;DHT22;50101;49.438;11.098;2023-08-07T04:38:03;21.80;66.50
38237;DHT22;50101;49.438;11.098;2023-08-07T04:40:29;21.80;66.40
38237;DHT22;50101;49.438;11.098;2023-08-07T04:42:56;21.80;65.80
38237;DHT22;50101;49.438;11.098;2023-08-07T04:45:23;21.80;65.80
38237;DHT22;50101;49.438;11.098;2023-08-07T04:47:50;21.80;66.40
38237;DHT22;50101;49.438;11.098;2023-08-07T04:50:17;21.80;66.40
38237;DHT22;50101;49.438;11.098;2023-08-07T04:52:44;21.80;66.40
38237;DHT22;50101;49.438;11.098;2023-08-07T04:55:11;21.80;66.40
38237;DHT22;50101;49.438;11.098;2023-08-07T04:57:38;21.80;66.40
38237;DHT22;50101;49.438;11.098;2023-08-07T05:00:05;21.80;66.40
38237;DHT22;50101;49.438;11.098;2023-08-07T05:02:32;21.80;66.40
38237;DHT22;50101;49.438;11.098;2023-08-07T05:04:59;21.80;66.40
38237;DHT22;50101;49.438;11.098;2023-08-07T05:07:26;21.80;66.30
38237;DHT22;50101;49.438;11.098;2023-08-07T05:09:52;21.80;66.30
38237;DHT22;50101;49.438;11.098;2023-08-07T05:12:20;21.80;66.30
38237;DHT22;50101;49.438;11.098;2023-08-07T05:14:46;21.80;66.30
38237;DHT22;50101;49.438;11.098;2023-08-07T05:17:13;21.80;66.30
38237;DHT22;50101;49.438;11.098;2023-08-07T05:19:40;21.80;66.30
38237;DHT22;50101;49.438;11.098;2023-08-07T05:22:06;21.80;66.20
38237;DHT22;50101;49.438;11.098;2023-08-07T05:24:33;21.80;66.30
38237;DHT22;50101;49.438;11.098;2023-08-07T05:27:06;21.80;66.20
38237;DHT22;50101;49.438;11.098;2023-08-07T05:29:35;21.80;66.20
38237;DHT22;50101;49.438;11.098;2023-08-07T05:32:10;21.80;66.20
38237;DHT22;50101;49.438;11.098;2023-08-07T05:34:38;21.80;66.20
38237;DHT22;50101;49.438;11.098;2023-08-07T05:37:05;21.80;66.20
38237;DHT22;50101;49.438;11.098;2023-08-07T05:39:32;21.80;66.20
38237;DHT22;50101;49.438;11.098;2023-08-07T05:41:59;21.90;66.20
38237;DHT22;50101;49.438;11.098;2023-08-07T05:44:26;21.90;66.20
38237;DHT22;50101;49.438;11.098;2023-08-07T05:46:53;21.90;66.10
38237;DHT22;50101;49.438;11.098;2023-08-07T05:49:20;21.90;66.10
38237;DHT22;50101;49.438;11.098;2023-08-07T05:51:51;21.90;66.30
38237;DHT22;50101;49.438;11.098;2023-08-07T05:54:18;21.90;66.40
38237;DHT22;50101;49.438;11.098;2023-08-07T05:56:44;22.00;66.40
38237;DHT22;50101;49.438;11.098;2023-08-07T05:59:11;21.90;66.30
38237;DHT22;50101;49.438;11.098;2023-08-07T06:01:38;22.00;66.50
38237;DHT22;50101;49.438;11.098;2023-08-07T06:04:05;22.00;65.70
38237;DHT22;50101;49.438;11.098;2023-08-07T06:06:31;22.00;66.40
38237;DHT22;50101;49.438;11.098;2023-08-07T06:09:01;22.00;66.10
38237;DHT22;50101;49.438;11.098;2023-08-07T06:11:29;21.90;66.30
38237;DHT22;50101;49.438;11.098;2023-08-07T06:13:56;22.00;66.40
38237;DHT22;50101;49.438;11.098;2023-08-07T06:16:22;22.00;66.40
38237;DHT22;50101;49.438;11.098;2023-08-07T06:18:49;22.00;66.40
38237;DHT22;50101;49.438;11.098;2023-08-07T06:21:16;22.00;66.50
38237;DHT22;50101;49.438;11.098;2023-08-07T06:23:43;21.90;66.50
38237;DHT22;50101;49.438;11.098;2023-08-07T06:26:09;22.00;66.40
38237;DHT22;50101;49.438;11.098;2023-08-07T06:28:36;22.00;66.60
38237;DHT22;50101;49.438;11.098;2023-08-07T06:31:07;22.00;66.60
38237;DHT22;50101;49.438;11.098;2023-08-07T06:33:33;22.00;65.80
38237;DHT22;50101;49.438;11.098;2023-08-07T06:36:04;22.00;65.80
38237;DHT22;50101;49.438;11.098;2023-08-07T06:38:31;22.00;66.60
38237;DHT22;50101;49.438;11.098;2023-08-07T06:40:57;22.00;66.30
38237;DHT22;50101;49.438;11.098;2023-08-07T06:43:24;22.00;66.20
38237;DHT22;50101;49.438;11.098;2023-08-07T06:45:53;22.00;65.90
38237;DHT22;50101;49.438;11.098;2023-08-07T06:48:20;22.00;66.00
38237;DHT22;50101;49.438;11.098;2023-08-07T06:50:47;22.00;65.90
38237;DHT22;50101;49.438;11.098;2023-08-07T06:53:14;22.00;66.00
38237;DHT22;50101;49.438;11.098;2023-08-07T06:55:41;22.00;65.60
38237;DHT22;50101;49.438;11.098;2023-08-07T06:58:09;22.00;66.10
38237;DHT22;50101;49.438;11.098;2023-08-07T07:00:36;22.00;66.20
38237;DHT22;50101;49.438;11.098;2023-08-07T07:03:03;21.90;66.10
38237;DHT22;50101;49.438;11.098;2023-08-07T07:05:31;22.00;65.40
38237;DHT22;50101;49.438;11.098;2023-08-07T07:07:58;22.00;66.20
38237;DHT22;50101;49.438;11.098;2023-08-07T07:10:25;22.00;66.00
38237;DHT22;50101;49.438;11.098;2023-08-07T07:12:52;22.00;66.00
38237;DHT22;50101;49.438;11.098;2023-08-07T07:15:19;22.00;65.90
38237;DHT22;50101;49.438;11.098;2023-08-07T07:17:46;22.00;65.90
38237;DHT22;50101;49.438;11.098;2023-08-07T07:20:12;22.00;65.90
38237;DHT22;50101;49.438;11.098;2023-08-07T07:22:39;22.00;65.90
38237;DHT22;50101;49.438;11.098;2023-08-07T07:25:06;22.00;65.20
38237;DHT22;50101;49.438;11.098;2023-08-07T07:27:33;22.00;66.00
38237;DHT22;50101;49.438;11.098;2023-08-07T07:30:00;22.00;66.00
38237;DHT22;50101;49.438;11.098;2023-08-07T07:32:26;22.00;65.90
38237;DHT22;50101;49.438;11.098;2023-08-07T07:34:53;22.00;65.20
38237;DHT22;50101;49.438;11.098;2023-08-07T07:37:20;22.00;65.80
38237;DHT22;50101;49.438;11.098;2023-08-07T07:39:47;22.00;66.00
38237;DHT22;50101;49.438;11.098;2023-08-07T07:42:13;22.00;65.90
38237;DHT22;50101;49.438;11.098;2023-08-07T07:44:40;22.00;66.00
38237;DHT22;50101;49.438;11.098;2023-08-07T07:47:08;22.00;65.90
38237;DHT22;50101;49.438;11.098;2023-08-07T07:49:38;22.00;66.00
38237;DHT22;50101;49.438;11.098;2023-08-07T07:52:06;22.00;65.80
38237;DHT22;50101;49.438;11.098;2023-08-07T07:54:34;22.00;65.80
38237;DHT22;50101;49.438;11.098;2023-08-07T07:57:01;22.00;65.80
38237;DHT22;50101;49.438;11.098;2023-08-07T07:59:28;22.00;65.90
38237;DHT22;50101;49.438;11.098;2023-08-07T08:01:54;22.00;65.70
38237;DHT22;50101;49.438;11.098;2023-08-07T08:04:22;22.00;65.60
38237;DHT22;50101;49.438;11.098;2023-08-07T08:06:49;22.10;65.70
38237;DHT22;50101;49.438;11.098;2023-08-07T08:09:16;22.10;65.70
38237;DHT22;50101;49.438;11.098;2023-08-07T08:11:43;22.10;65.70
38237;DHT22;50101;49.438;11.098;2023-08-07T08:14:10;22.00;65.60
38237;DHT22;50101;49.438;11.098;2023-08-07T08:16:37;22.10;65.70
38237;DHT22;50101;49.438;11.098;2023-08-07T08:19:04;22.10;65.40
38237;DHT22;50101;49.438;11.098;2023-08-07T08:21:30;22.10;65.50
38237;DHT22;50101;49.438;11.098;2023-08-07T08:23:58;22.10;65.40
38237;DHT22;50101;49.438;11.098;2023-08-07T08:26:24;22.00;65.10
38237;DHT22;50101;49.438;11.098;2023-08-07T08:28:51;22.00;65.20
38237;DHT22;50101;49.438;11.098;2023-08-07T08:31:18;22.00;65.40
38237;DHT22;50101;49.438;11.098;2023-08-07T08:33:44;22.10;64.70
38237;DHT22;50101;49.438;11.098;2023-08-07T08:36:11;22.10;65.30
38237;DHT22;50101;49.438;11.098;2023-08-07T08:38:38;22.10;65.30
38237;DHT22;50101;49.438;11.098;2023-08-07T08:41:07;22.00;65.40
38237;DHT22;50101;49.438;11.098;2023-08-07T08:43:35;22.00;65.10
38237;DHT22;50101;49.438;11.098;2023-08-07T08:46:07;22.00;65.10
38237;DHT22;50101;49.438;11.098;2023-08-07T08:48:38;22.00;65.20
38237;DHT22;50101;49.438;11.098;2023-08-07T08:51:08;22.10;65.60
38237;DHT22;50101;49.438;11.098;2023-08-07T08:53:35;22.00;65.10
38237;DHT22;50101;49.438;11.098;2023-08-07T08:56:02;22.00;65.30
38237;DHT22;50101;49.438;11.098;2023-08-07T08:58:29;22.10;65.60
38237;DHT22;50101;49.438;11.098;2023-08-07T09:00:56;22.10;65.20
38237;DHT22;50101;49.438;11.098;2023-08-07T09:03:24;22.00;65.20
38237;DHT22;50101;49.438;11.098;2023-08-07T09:05:53;22.00;65.50
38237;DHT22;50101;49.438;11.098;2023-08-07T09:08:22;22.00;65.30
38237;DHT22;50101;49.438;11.098;2023-08-07T09:10:51;22.00;65.30
38237;DHT22;50101;49.438;11.098;2023-08-07T09:13:20;22.00;65.40
38237;DHT22;50101;49.438;11.098;2023-08-07T09:15:51;22.00;66.00
38237;DHT22;50101;49.438;11.098;2023-08-07T09:18:18;22.00;65.40
38237;DHT22;50101;49.438;11.098;2023-08-07T09:20:48;22.00;65.50
38237;DHT22;50101;49.438;11.098;2023-08-07T09:23:16;21.90;64.70
38237;DHT22;50101;49.438;11.098;2023-08-07T09:25:44;22.00;65.40
38237;DHT22;50101;49.438;11.098;2023-08-07T09:28:11;22.00;65.40
38237;DHT22;50101;49.438;11.098;2023-08-07T09:30:38;22.00;65.50
38237;DHT22;50101;49.438;11.098;2023-08-07T09:33:05;22.00;65.60
38237;DHT22;50101;49.438;11.098;2023-08-07T09:35:32;22.00;65.60
38237;DHT22;50101;49.438;11.098;2023-08-07T09:38:01;22.00;65.50
38237;DHT22;50101;49.438;11.098;2023-08-07T09:40:27;22.00;65.40
38237;DHT22;50101;49.438;11.098;2023-08-07T09:42:55;21.50;65.00
38237;DHT22;50101;49.438;11.098;2023-08-07T09:48:00;22.00;65.40
38237;DHT22;50101;49.438;11.098;2023-08-07T09:50:28;22.00;65.40
38237;DHT22;50101;49.438;11.098;2023-08-07T09:52:56;22.00;65.30
38237;DHT22;50101;49.438;11.098;2023-08-07T09:55:25;22.00;65.40
38237;DHT22;50101;49.438;11.098;2023-08-07T09:57:52;22.00;65.40
38237;DHT22;50101;49.438;11.098;2023-08-07T10:00:19;22.00;65.40
38237;DHT22;50101;49.438;11.098;2023-08-07T10:02:50;22.00;65.50
38237;DHT22;50101;49.438;11.098;2023-08-07T10:05:17;22.00;65.40
38237;DHT22;50101;49.438;11.098;2023-08-07T10:07:44;22.00;65.30
38237;DHT22;50101;49.438;11.098;2023-08-07T10:10:12;22.00;66.20
38237;DHT22;50101;49.438;11.098;2023-08-07T10:12:39;22.00;65.40
38237;DHT22;50101;49.438;11.098;2023-08-07T10:15:06;22.00;64.70
38237;DHT22;50101;49.438;11.098;2023-08-07T10:17:33;22.00;65.40
38237;DHT22;50101;49.438;11.098;2023-08-07T10:20:01;22.00;65.40
38237;DHT22;50101;49.438;11.098;2023-08-07T10:22:30;22.00;65.40
38237;DHT22;50101;49.438;11.098;2023-08-07T10:25:00;22.10;65.50
38237;DHT22;50101;49.438;11.098;2023-08-07T10:27:29;22.10;65.50
38237;DHT22;50101;49.438;11.098;2023-08-07T10:30:00;22.10;65.50
38237;DHT22;50101;49.438;11.098;2023-08-07T10:32:28;22.10;65.20
38237;DHT22;50101;49.438;11.098;2023-08-07T10:34:56;22.10;65.30
38237;DHT22;50101;49.438;11.098;2023-08-07T10:37:42;22.00;65.20
38237;DHT22;50101;49.438;11.098;2023-08-07T10:40:10;22.10;65.20
38237;DHT22;50101;49.438;11.098;2023-08-07T10:43:13;22.10;65.60
38237;DHT22;50101;49.438;11.098;2023-08-07T10:45:40;22.00;65.20
38237;DHT22;50101;49.438;11.098;2023-08-07T10:48:08;22.10;65.20
38237;DHT22;50101;49.438;11.098;2023-08-07T10:50:55;22.10;65.20
38237;DHT22;50101;49.438;11.098;2023-08-07T10:53:30;22.10;65.20
38237;DHT22;50101;49.438;11.098;2023-08-07T10:56:04;22.10;65.20
38237;DHT22;50101;49.438;11.098;2023-08-07T10:58:39;22.10;65.20
38237;DHT22;50101;49.438;11.098;2023-08-07T11:01:22;22.10;65.20
38237;DHT22;50101;49.438;11.098;2023-08-07T11:04:00;22.00;65.20
38237;DHT22;50101;49.438;11.098;2023-08-07T11:06:29;22.00;65.10
38237;DHT22;50101;49.438;11.098;2023-08-07T11:09:00;22.00;65.10
38237;DHT22;50101;49.438;11.098;2023-08-07T11:11:27;22.00;65.10
38237;DHT22;50101;49.438;11.098;2023-08-07T11:13:53;22.00;65.10
38237;DHT22;50101;49.438;11.098;2023-08-07T11:16:20;22.00;65.00
38237;DHT22;50101;49.438;11.098;2023-08-07T11:18:49;22.00;64.30
38237;DHT22;50101;49.438;11.098;2023-08-07T11:21:15;22.00;64.70
38237;DHT22;50101;49.438;11.098;2023-08-07T11:23:42;22.00;64.70
38237;DHT22;50101;49.438;11.098;2023-08-07T11:26:10;22.00;64.80
38237;DHT22;50101;49.438;11.098;2023-08-07T11:28:37;22.00;64.80
38237;DHT22;50101;49.438;11.098;2023-08-07T11:31:04;22.00;64.80
38237;DHT22;50101;49.438;11.098;2023-08-07T11:33:31;22.00;64.90
38237;DHT22;50101;49.438;11.098;2023-08-07T11:35:58;22.00;65.00
38237;DHT22;50101;49.438;11.098;2023-08-07T11:38:39;22.00;65.00
38237;DHT22;50101;49.438;11.098;2023-08-07T11:41:07;22.00;65.00
38237;DHT22;50101;49.438;11.098;2023-08-07T11:43:34;22.00;65.00
38237;DHT22;50101;49.438;11.098;2023-08-07T11:46:06;22.00;65.00
38237;DHT22;50101;49.438;11.098;2023-08-07T11:48:38;22.00;65.10
38237;DHT22;50101;49.438;11.098;2023-08-07T11:51:06;22.10;64.90
38237;DHT22;50101;49.438;11.098;2023-08-07T11:53:37;22.00;64.80
38237;DHT22;50101;49.438;11.098;2023-08-07T11:56:10;22.00;65.10
38237;DHT22;50101;49.438;11.098;2023-08-07T11:58:42;22.00;65.10
38237;DHT22;50101;49.438;11.098;2023-08-07T12:01:11;22.00;65.10
38237;DHT22;50101;49.438;11.098;2023-08-07T12:03:40;22.00;65.10
38237;DHT22;50101;49.438;11.098;2023-08-07T12:06:08;22.00;65.10
38237;DHT22;50101;49.438;11.098;2023-08-07T12:08:39;22.00;65.10
38237;DHT22;50101;49.438;11.098;2023-08-07T12:11:12;22.00;65.10
38237;DHT22;50101;49.438;11.098;2023-08-07T12:13:43;22.00;65.10
38237;DHT22;50101;49.438;11.098;2023-08-07T12:16:13;22.00;65.10
38237;DHT22;50101;49.438;11.098;2023-08-07T12:18:49;22.10;65.20
38237;DHT22;50101;49.438;11.098;2023-08-07T12:21:26;22.00;65.10
38237;DHT22;50101;49.438;11.098;2023-08-07T12:23:57;22.00;65.10
38237;DHT22;50101;49.438;11.098;2023-08-07T12:26:25;22.00;65.10
38237;DHT22;50101;49.438;11.098;2023-08-07T12:28:53;22.00;65.10
38237;DHT22;50101;49.438;11.098;2023-08-07T12:31:20;22.00;65.10
38237;DHT22;50101;49.438;11.098;2023-08-07T12:33:46;22.00;65.10
38237;DHT22;50101;49.438;11.098;2023-08-07T12:36:14;22.00;65.10
38237;DHT22;50101;49.438;11.098;2023-08-07T12:38:44;22.00;65.20
38237;DHT22;50101;49.438;11.098;2023-08-07T12:41:11;22.00;65.10
38237;DHT22;50101;49.438;11.098;2023-08-07T12:43:40;22.00;65.10
38237;DHT22;50101;49.438;11.098;2023-08-07T12:46:07;22.00;65.10
38237;DHT22;50101;49.438;11.098;2023-08-07T12:48:37;22.00;65.10
38237;DHT22;50101;49.438;11.098;2023-08-07T12:51:03;22.00;65.20
38237;DHT22;50101;49.438;11.098;2023-08-07T12:53:30;22.00;65.10
38237;DHT22;50101;49.438;11.098;2023-08-07T12:55:58;22.00;65.10
38237;DHT22;50101;49.438;11.098;2023-08-07T12:58:25;22.00;65.10
38237;DHT22;50101;49.438;11.098;2023-08-07T13:00:54;21.90;65.80
38237;DHT22;50101;49.438;11.098;2023-08-07T13:03:21;22.00;65.00
38237;DHT22;50101;49.438;11.098;2023-08-07T13:05:47;22.00;65.10
38237;DHT22;50101;49.438;11.098;2023-08-07T13:08:14;22.00;65.10
38237;DHT22;50101;49.438;11.098;2023-08-07T13:10:41;22.00;65.10
38237;DHT22;50101;49.438;11.098;2023-08-07T13:13:08;22.00;65.10
38237;DHT22;50101;49.438;11.098;2023-08-07T13:15:35;22.00;65.20
38237;DHT22;50101;49.438;11.098;2023-08-07T13:18:01;22.00;65.10
38237;DHT22;50101;49.438;11.098;2023-08-07T13:20:29;22.00;65.10
38237;DHT22;50101;49.438;11.098;2023-08-07T13:23:00;22.00;64.50
38237;DHT22;50101;49.438;11.098;2023-08-07T13:25:28;22.00;64.50
38237;DHT22;50101;49.438;11.098;2023-08-07T13:27:54;22.00;65.20
38237;DHT22;50101;49.438;11.098;2023-08-07T13:30:21;22.00;65.10
38237;DHT22;50101;49.438;11.098;2023-08-07T13:32:48;22.00;65.10
38237;DHT22;50101;49.438;11.098;2023-08-07T13:35:15;22.00;65.20
38237;DHT22;50101;49.438;11.098;2023-08-07T13:37:41;22.00;65.10
38237;DHT22;50101;49.438;11.098;2023-08-07T13:40:08;22.00;64.90
38237;DHT22;50101;49.438;11.098;2023-08-07T13:42:38;22.00;64.80
38237;DHT22;50101;49.438;11.098;2023-08-07T13:45:05;21.90;65.00
38237;DHT22;50101;49.438;11.098;2023-08-07T13:47:32;22.00;64.80
38237;DHT22;50101;49.438;11.098;2023-08-07T13:49:59;22.10;64.70
38237;DHT22;50101;49.438;11.098;2023-08-07T13:52:26;22.00;64.60
38237;DHT22;50101;49.438;11.098;2023-08-07T13:54:54;22.00;64.60
38237;DHT22;50101;49.438;11.098;2023-08-07T13:57:21;22.00;64.80
38237;DHT22;50101;49.438;11.098;2023-08-07T13:59:48;22.00;64.80
38237;DHT22;50101;49.438;11.098;2023-08-07T14:02:16;22.00;64.60
38237;DHT22;50101;49.438;11.098;2023-08-07T14:04:43;22.00;64.30
38237;DHT22;50101;49.438;11.098;2023-08-07T14:07:12;22.00;64.60
38237;DHT22;50101;49.438;11.098;2023-08-07T14:09:39;22.00;64.70
38237;DHT22;50101;49.438;11.098;2023-08-07T14:12:06;22.00;64.80
38237;DHT22;50101;49.438;11.098;2023-08-07T14:14:33;22.00;64.80
38237;DHT22;50101;49.438;11.098;2023-08-07T14:16:59;22.00;64.90
38237;DHT22;50101;49.438;11.098;2023-08-07T14:19:28;22.00;65.00
38237;DHT22;50101;49.438;11.098;2023-08-07T14:21:55;22.00;64.90
38237;DHT22;50101;49.438;11.098;2023-08-07T14:24:21;22.00;65.80
38237;DHT22;50101;49.438;11.098;2023-08-07T14:26:48;22.00;64.80
38237;DHT22;50101;49.438;11.098;2023-08-07T14:29:15;22.00;65.00
38237;DHT22;50101;49.438;11.098;2023-08-07T14:31:42;22.00;65.10
38237;DHT22;50101;49.438;11.098;2023-08-07T14:34:08;22.10;65.00
38237;DHT22;50101;49.438;11.098;2023-08-07T14:36:36;22.00;65.00
38237;DHT22;50101;49.438;11.098;2023-08-07T14:39:03;22.00;65.10
38237;DHT22;50101;49.438;11.098;2023-08-07T14:41:30;22.00;65.10
38237;DHT22;50101;49.438;11.098;2023-08-07T14:43:56;22.00;65.10
38237;DHT22;50101;49.438;11.098;2023-08-07T14:46:23;22.00;65.10
38237;DHT22;50101;49.438;11.098;2023-08-07T14:48:50;22.00;65.10
38237;DHT22;50101;49.438;11.098;2023-08-07T14:51:17;22.00;65.10
38237;DHT22;50101;49.438;11.098;2023-08-07T14:53:43;21.90;65.00
38237;DHT22;50101;49.438;11.098;2023-08-07T14:56:10;22.00;65.10
38237;DHT22;50101;49.438;11.098;2023-08-07T14:58:37;22.00;65.10
38237;DHT22;50101;49.438;11.098;2023-08-07T15:01:04;22.00;65.10
38237;DHT22;50101;49.438;11.098;2023-08-07T15:03:31;22.00;65.10
38237;DHT22;50101;49.438;11.098;2023-08-07T15:05:57;22.00;65.00
38237;DHT22;50101;49.438;11.098;2023-08-07T15:08:24;22.00;65.10
38237;DHT22;50101;49.438;11.098;2023-08-07T15:10:52;22.00;65.00
38237;DHT22;50101;49.438;11.098;2023-08-07T15:13:20;22.00;64.50
38237;DHT22;50101;49.438;11.098;2023-08-07T15:15:46;22.00;65.10
38237;DHT22;50101;49.438;11.098;2023-08-07T15:18:13;22.00;65.10
38237;DHT22;50101;49.438;11.098;2023-08-07T15:20:40;22.00;65.00
38237;DHT22;50101;49.438;11.098;2023-08-07T15:23:07;22.00;64.90
38237;DHT22;50101;49.438;11.098;2023-08-07T15:25:33;22.00;65.10
38237;DHT22;50101;49.438;11.098;2023-08-07T15:28:00;22.00;64.90